createdAt,value
2022-07-29T00:01:58.125Z,100756.72
2022-07-29T00:04:30.614Z,100746.25
2022-07-29T00:07:01.336Z,100750.53
2022-07-29T00:09:32.007Z,100751.75
2022-07-29T00:12:04.412Z,100748.34
2022-07-29T00:14:35.067Z,100741.69
2022-07-29T00:17:05.839Z,100747.97
2022-07-29T00:19:38.217Z,100747.75
2022-07-29T00:24:38.650Z,100745.56
2022-07-29T00:27:09.284Z,100739.75
2022-07-29T00:29:39.962Z,100744.84
2022-07-29T00:32:11.028Z,100740.78
2022-07-29T00:35:00.056Z,100736.97
2022-07-29T00:37:30.647Z,100749.03
2022-07-29T00:40:01.297Z,100743.63
2022-07-29T00:42:32.035Z,100750.88
2022-07-29T00:45:02.597Z,100747.97
2022-07-29T00:47:33.135Z,100756.00
2022-07-29T00:50:05.553Z,100762.34
2022-07-29T00:52:36.931Z,100758.53
2022-07-29T00:55:09.075Z,100762.81
2022-07-29T00:57:40.525Z,100746.66
2022-07-29T01:00:13.799Z,100745.06
2022-07-29T01:02:44.526Z,100748.25
2022-07-29T01:05:17.017Z,100752.34
2022-07-29T01:07:48.583Z,100738.53
2022-07-29T01:10:20.386Z,100741.53
2022-07-29T01:12:52.930Z,100722.81
2022-07-29T01:15:23.810Z,100747.00
2022-07-29T01:18:02.605Z,100695.56
2022-07-29T01:20:51.690Z,100743.56
2022-07-29T01:23:56.431Z,100733.72
2022-07-29T01:26:43.216Z,100731.38
2022-07-29T01:29:26.077Z,100724.88
2022-07-29T01:32:09.988Z,100721.38
2022-07-29T01:35:05.810Z,100710.41
2022-07-29T01:37:43.243Z,100726.91
2022-07-29T01:40:20.153Z,100705.50
2022-07-29T01:42:58.354Z,100725.41
2022-07-29T01:45:38.034Z,100719.78
2022-07-29T01:48:15.873Z,100725.94
2022-07-29T01:50:52.077Z,100724.53
2022-07-29T01:53:37.779Z,100717.91
2022-07-29T01:56:10.260Z,100714.16
2022-07-29T01:58:43.815Z,100700.00
2022-07-29T02:01:18.574Z,100677.56
2022-07-29T02:03:50.664Z,100697.69
2022-07-29T02:06:24.872Z,100688.00
2022-07-29T02:08:57.850Z,100696.25
2022-07-29T02:11:28.559Z,100711.88
2022-07-29T02:14:01.897Z,100709.03
2022-07-29T02:16:36.432Z,100710.50
2022-07-29T02:19:08.322Z,100712.50
2022-07-29T02:21:39.825Z,100719.47
2022-07-29T02:24:12.468Z,100714.13
2022-07-29T02:26:45.417Z,100713.81
2022-07-29T02:29:18.262Z,100714.81
2022-07-29T02:31:51.874Z,100721.63
2022-07-29T02:34:24.181Z,100717.53
2022-07-29T02:36:55.984Z,100716.88
2022-07-29T02:39:28.244Z,100701.97
2022-07-29T02:42:05.293Z,100711.06
2022-07-29T02:44:36.215Z,100711.06
2022-07-29T02:47:14.644Z,100707.69
2022-07-29T02:49:53.143Z,100713.03
2022-07-29T02:52:30.111Z,100709.41
2022-07-29T02:55:05.600Z,100697.50
2022-07-29T02:57:54.996Z,100700.31
2022-07-29T03:00:29.566Z,100686.75
2022-07-29T03:03:07.117Z,100679.19
2022-07-29T03:05:38.809Z,100680.53
2022-07-29T03:08:12.204Z,100678.94
2022-07-29T03:10:47.330Z,100666.72
2022-07-29T03:13:18.994Z,100673.81
2022-07-29T03:15:50.964Z,100667.97
2022-07-29T03:18:23.543Z,100680.03
2022-07-29T03:20:54.273Z,100677.47
2022-07-29T03:23:25.794Z,100680.13
2022-07-29T03:25:56.673Z,100677.34
2022-07-29T03:28:29.136Z,100674.00
2022-07-29T03:30:59.843Z,100684.75
2022-07-29T03:33:32.429Z,100677.03
2022-07-29T03:36:04.234Z,100675.94
2022-07-29T03:38:37.658Z,100675.34
2022-07-29T03:41:13.169Z,100654.72
2022-07-29T03:43:49.521Z,100670.84
2022-07-29T03:46:21.999Z,100662.50
2022-07-29T03:48:59.710Z,100661.59
2022-07-29T03:51:33.379Z,100627.22
2022-07-29T03:54:13.866Z,100662.53
2022-07-29T03:56:47.995Z,100644.06
2022-07-29T03:59:21.589Z,100655.63
2022-07-29T04:01:52.756Z,100645.59
2022-07-29T04:04:25.538Z,100637.38
2022-07-29T04:06:57.961Z,100628.84
2022-07-29T04:09:28.565Z,100637.19
2022-07-29T04:12:02.857Z,100630.56
2022-07-29T04:14:36.021Z,100623.22
2022-07-29T04:17:07.659Z,100622.22
2022-07-29T04:19:39.935Z,100604.50
2022-07-29T04:22:10.541Z,100623.13
2022-07-29T04:24:44.205Z,100629.63
2022-07-29T04:27:15.162Z,100627.75
2022-07-29T04:29:56.020Z,100630.97
2022-07-29T04:32:28.325Z,100624.31
2022-07-29T04:35:03.084Z,100618.22
2022-07-29T04:37:33.697Z,100618.44
2022-07-29T04:40:04.326Z,100616.84
2022-07-29T04:42:35.002Z,100621.44
2022-07-29T04:45:22.269Z,100620.31
2022-07-29T04:47:53.464Z,100619.53
2022-07-29T04:50:25.726Z,100610.69
2022-07-29T04:52:56.309Z,100621.91
2022-07-29T04:55:26.928Z,100621.38
2022-07-29T04:57:57.558Z,100609.59
2022-07-29T05:00:33.598Z,100607.97
2022-07-29T05:03:04.373Z,100604.06
2022-07-29T05:05:36.566Z,100603.81
2022-07-29T05:08:07.473Z,100610.38
2022-07-29T05:10:39.861Z,100611.84
2022-07-29T05:13:10.938Z,100566.03
2022-07-29T05:15:42.084Z,100612.13
2022-07-29T05:18:12.666Z,100612.59
2022-07-29T05:20:44.830Z,100616.78
2022-07-29T05:23:16.481Z,100611.91
2022-07-29T05:25:48.014Z,100618.34
2022-07-29T05:28:18.653Z,100627.25
2022-07-29T05:30:50.113Z,100629.19
2022-07-29T05:33:35.808Z,100621.50
2022-07-29T05:36:09.518Z,100615.44
2022-07-29T05:38:40.340Z,100615.91
2022-07-29T05:41:10.959Z,100617.25
2022-07-29T05:43:41.578Z,100612.38
2022-07-29T05:46:12.177Z,100602.38
2022-07-29T05:48:42.897Z,100606.97
2022-07-29T05:51:15.237Z,100603.03
2022-07-29T05:53:46.606Z,100601.06
2022-07-29T05:56:17.615Z,100598.00
2022-07-29T05:58:48.246Z,100599.06
2022-07-29T06:01:18.980Z,100597.31
2022-07-29T06:03:49.631Z,100597.25
2022-07-29T06:06:21.916Z,100588.91
2022-07-29T06:08:53.084Z,100595.75
2022-07-29T06:11:23.642Z,100597.47
2022-07-29T06:13:54.965Z,100594.03
2022-07-29T06:16:30.297Z,100595.25
2022-07-29T06:19:01.270Z,100597.28
2022-07-29T06:21:33.573Z,100604.13
2022-07-29T06:24:04.150Z,100603.28
2022-07-29T06:26:37.820Z,100608.41
2022-07-29T06:29:10.934Z,100603.28
2022-07-29T06:31:41.797Z,100608.13
2022-07-29T06:34:12.474Z,100604.44
2022-07-29T06:36:46.064Z,100606.19
2022-07-29T06:39:16.919Z,100600.34
2022-07-29T06:41:52.222Z,100596.75
2022-07-29T06:44:22.842Z,100594.94
2022-07-29T06:46:53.542Z,100603.84
2022-07-29T06:49:25.393Z,100596.69
2022-07-29T06:51:57.888Z,100595.19
2022-07-29T06:54:28.464Z,100591.56
2022-07-29T06:56:59.042Z,100590.50
2022-07-29T06:59:35.028Z,100597.97
2022-07-29T07:02:06.367Z,100596.47
2022-07-29T07:04:37.308Z,100600.72
2022-07-29T07:07:09.566Z,100599.94
2022-07-29T07:09:40.972Z,100599.94
2022-07-29T07:12:12.018Z,100599.41
2022-07-29T07:14:44.105Z,100591.09
2022-07-29T07:17:14.701Z,100597.03
2022-07-29T07:19:45.351Z,100602.59
2022-07-29T07:22:17.645Z,100600.84
2022-07-29T07:24:48.290Z,100600.31
2022-07-29T07:27:18.948Z,100589.63
2022-07-29T07:29:49.506Z,100591.91
2022-07-29T07:32:20.291Z,100590.41
2022-07-29T07:34:51.024Z,100591.47
2022-07-29T07:37:23.283Z,100589.53
2022-07-29T07:39:53.899Z,100583.75
2022-07-29T07:42:24.701Z,100584.06
2022-07-29T07:45:12.428Z,100575.84
2022-07-29T07:47:44.359Z,100527.56
2022-07-29T07:50:18.843Z,100584.34
2022-07-29T07:52:56.776Z,100587.69
2022-07-29T07:55:27.886Z,100568.50
2022-07-29T07:57:58.990Z,100585.81
2022-07-29T08:00:29.707Z,100580.91
2022-07-29T08:03:00.559Z,100582.06
2022-07-29T08:05:31.317Z,100582.47
2022-07-29T08:08:03.600Z,100578.28
2022-07-29T08:10:51.183Z,100588.16
2022-07-29T08:13:22.420Z,100572.59
2022-07-29T08:15:59.271Z,100567.00
2022-07-29T08:18:30.706Z,100578.28
2022-07-29T08:21:01.462Z,100579.19
2022-07-29T08:23:47.087Z,100583.63
2022-07-29T08:26:19.537Z,100578.22
2022-07-29T08:28:52.070Z,100572.69
2022-07-29T08:31:22.821Z,100591.84
2022-07-29T08:33:53.507Z,100570.97
2022-07-29T08:36:24.404Z,100585.91
2022-07-29T08:38:56.649Z,100577.75
2022-07-29T08:41:28.198Z,100589.31
2022-07-29T08:43:59.114Z,100598.34
2022-07-29T08:46:29.803Z,100591.78
2022-07-29T08:49:00.558Z,100590.59
2022-07-29T08:51:31.460Z,100586.75
2022-07-29T08:54:04.213Z,100583.50
2022-07-29T08:56:35.144Z,100583.03
2022-07-29T08:59:08.449Z,100585.00
2022-07-29T09:01:51.799Z,100585.94
2022-07-29T09:04:23.914Z,100590.50
2022-07-29T09:06:58.260Z,100582.19
2022-07-29T09:09:30.902Z,100586.84
2022-07-29T09:12:05.780Z,100600.28
2022-07-29T09:14:36.359Z,100608.47
2022-07-29T09:17:07.537Z,100599.22
2022-07-29T09:19:45.522Z,100600.41
2022-07-29T09:22:31.953Z,100605.91
2022-07-29T09:25:04.283Z,100599.22
2022-07-29T09:27:37.982Z,100602.22
2022-07-29T09:30:12.331Z,100608.31
2022-07-29T09:33:02.992Z,100599.72
2022-07-29T09:35:35.115Z,100617.56
2022-07-29T09:38:15.351Z,100604.59
2022-07-29T09:41:05.371Z,100614.78
2022-07-29T09:43:37.525Z,100608.25
2022-07-29T09:46:17.940Z,100601.75
2022-07-29T09:48:48.734Z,100610.97
2022-07-29T09:51:37.868Z,100602.41
2022-07-29T09:54:27.546Z,100603.78
2022-07-29T09:56:59.860Z,100616.50
2022-07-29T09:59:30.455Z,100606.19
2022-07-29T10:02:02.549Z,100606.69
2022-07-29T10:04:44.140Z,100605.91
2022-07-29T10:07:15.115Z,100587.00
2022-07-29T10:09:56.413Z,100611.38
2022-07-29T10:12:29.385Z,100625.72
2022-07-29T10:15:00.947Z,100618.84
2022-07-29T10:17:32.905Z,100621.03
2022-07-29T10:20:07.148Z,100621.22
2022-07-29T10:22:54.109Z,100623.25
2022-07-29T10:25:26.030Z,100597.31
2022-07-29T10:27:59.206Z,100619.97
2022-07-29T10:30:31.139Z,100629.84
2022-07-29T10:33:19.818Z,100632.13
2022-07-29T10:36:13.035Z,100634.00
2022-07-29T10:38:56.555Z,100635.88
2022-07-29T10:41:59.813Z,100646.50
2022-07-29T10:44:32.615Z,100647.81
2022-07-29T10:47:03.726Z,100651.41
2022-07-29T10:49:34.537Z,100647.09
2022-07-29T10:52:07.276Z,100645.69
2022-07-29T10:54:49.463Z,100648.50
2022-07-29T10:57:52.661Z,100657.25
2022-07-29T11:00:34.170Z,100654.44
2022-07-29T11:03:10.547Z,100672.84
2022-07-29T11:05:59.772Z,100666.59
2022-07-29T11:08:32.632Z,100656.16
2022-07-29T11:11:43.768Z,100665.06
2022-07-29T11:14:19.283Z,100668.94
2022-07-29T11:17:09.589Z,100670.94
2022-07-29T11:19:50.984Z,100668.75
2022-07-29T11:22:36.803Z,100669.59
2022-07-29T11:25:50.172Z,100666.25
2022-07-29T11:28:22.814Z,100678.28
2022-07-29T11:30:56.974Z,100671.53
2022-07-29T11:33:54.383Z,100663.34
2022-07-29T11:36:27.951Z,100667.63
2022-07-29T11:39:36.882Z,100661.38
2022-07-29T11:42:32.063Z,100663.13
2022-07-29T11:45:42.623Z,100658.66
2022-07-29T11:48:28.541Z,100657.94
2022-07-29T11:50:56.065Z,100664.38
2022-07-29T11:53:32.401Z,100670.50
2022-07-29T11:56:04.650Z,100671.53
2022-07-29T11:58:36.088Z,100667.97
2022-07-29T12:01:08.686Z,100665.13
2022-07-29T12:03:39.309Z,100667.78
2022-07-29T12:06:18.621Z,100663.34
2022-07-29T12:08:51.810Z,100668.66
2022-07-29T12:11:23.729Z,100670.28
2022-07-29T12:13:54.985Z,100663.50
2022-07-29T12:16:29.296Z,100658.22
2022-07-29T12:19:04.555Z,100653.22
2022-07-29T12:21:54.026Z,100662.06
2022-07-29T12:24:27.780Z,100662.06
2022-07-29T12:27:00.001Z,100648.03
2022-07-29T12:29:34.988Z,100632.72
2022-07-29T12:32:15.090Z,100663.81
2022-07-29T12:34:50.803Z,100659.28
2022-07-29T12:37:40.685Z,100660.06
2022-07-29T12:40:13.459Z,100644.91
2022-07-29T12:42:44.200Z,100662.06
2022-07-29T12:45:15.027Z,100663.03
2022-07-29T12:47:58.241Z,100666.59
2022-07-29T12:50:28.848Z,100662.06
2022-07-29T12:53:13.191Z,100651.47
2022-07-29T12:55:50.751Z,100650.56
2022-07-29T12:58:31.726Z,100648.03
2022-07-29T13:01:17.386Z,100625.69
2022-07-29T13:03:59.652Z,100647.19
2022-07-29T13:06:39.718Z,100639.28
2022-07-29T13:09:16.768Z,100632.28
2022-07-29T13:11:49.043Z,100642.72
2022-07-29T13:14:35.473Z,100634.88
2022-07-29T13:17:09.508Z,100629.47
2022-07-29T13:19:42.326Z,100618.41
2022-07-29T13:22:13.746Z,100625.41
2022-07-29T13:24:54.130Z,100595.91
2022-07-29T13:27:26.529Z,100610.38
2022-07-29T13:29:59.726Z,100611.09
2022-07-29T13:32:31.353Z,100607.47
2022-07-29T13:35:05.275Z,100607.63
2022-07-29T13:37:36.722Z,100609.38
2022-07-29T13:40:10.326Z,100605.78
2022-07-29T13:42:41.051Z,100599.53
2022-07-29T13:45:13.236Z,100605.78
2022-07-29T13:47:49.244Z,100602.06
2022-07-29T13:50:20.614Z,100601.13
2022-07-29T13:52:52.418Z,100596.59
2022-07-29T13:55:24.848Z,100592.16
2022-07-29T13:57:55.474Z,100586.94
2022-07-29T14:00:26.566Z,100591.59
2022-07-29T14:02:57.174Z,100593.31
2022-07-29T14:05:27.890Z,100598.63
2022-07-29T14:07:58.592Z,100590.72
2022-07-29T14:10:30.958Z,100603.75
2022-07-29T14:13:01.608Z,100594.91
2022-07-29T14:15:32.271Z,100598.47
2022-07-29T14:18:03.000Z,100594.91
2022-07-29T14:20:34.638Z,100594.75
2022-07-29T14:23:05.440Z,100586.00
2022-07-29T14:25:37.861Z,100581.56
2022-07-29T14:28:11.628Z,100584.13
2022-07-29T14:30:45.349Z,100583.28
2022-07-29T14:33:16.144Z,100580.84
2022-07-29T14:35:47.027Z,100584.41
2022-07-29T14:38:17.649Z,100580.84
2022-07-29T14:40:50.890Z,100582.56
2022-07-29T14:43:21.875Z,100582.41
2022-07-29T14:45:55.031Z,100580.69
2022-07-29T14:48:27.900Z,100572.69
2022-07-29T14:51:01.881Z,100568.41
2022-07-29T14:53:35.578Z,100570.09
2022-07-29T14:56:35.065Z,100575.41
2022-07-29T14:58:59.401Z,100572.91
2022-07-29T15:01:30.931Z,100571.91
2022-07-29T15:04:01.610Z,100570.09
2022-07-29T15:06:32.195Z,100575.69
2022-07-29T15:09:02.797Z,100574.97
2022-07-29T15:11:38.180Z,100580.28
2022-07-29T15:14:09.441Z,100585.59
2022-07-29T15:16:43.731Z,100582.88
2022-07-29T15:19:18.584Z,100575.13
2022-07-29T15:21:49.322Z,100574.13
2022-07-29T15:24:20.444Z,100572.41
2022-07-29T15:26:52.682Z,100568.84
2022-07-29T15:29:23.855Z,100561.78
2022-07-29T15:31:54.509Z,100564.53
2022-07-29T15:34:25.409Z,100555.78
2022-07-29T15:36:56.140Z,100547.16
2022-07-29T15:39:26.791Z,100557.44
2022-07-29T15:42:01.335Z,100555.78
2022-07-29T15:44:32.293Z,100547.78
2022-07-29T15:47:09.522Z,100549.66
2022-07-29T15:49:47.970Z,100551.34
2022-07-29T15:52:25.073Z,100558.50
2022-07-29T15:54:57.618Z,100557.44
2022-07-29T15:57:30.515Z,100552.19
2022-07-29T16:00:01.152Z,100552.13
2022-07-29T16:02:32.561Z,100549.50
2022-07-29T16:05:03.137Z,100542.31
2022-07-29T16:07:33.810Z,100540.69
2022-07-29T16:10:04.642Z,100539.03
2022-07-29T16:12:36.879Z,100538.19
2022-07-29T16:15:10.230Z,100533.66
2022-07-29T16:17:41.373Z,100524.00
2022-07-29T16:20:14.045Z,100525.94
2022-07-29T16:22:44.822Z,100521.41
2022-07-29T16:25:15.432Z,100519.56
2022-07-29T16:27:47.872Z,100507.25
2022-07-29T16:30:18.528Z,100507.25
2022-07-29T16:32:49.251Z,100499.28
2022-07-29T16:35:19.926Z,100499.34
2022-07-29T16:37:50.521Z,100496.66
2022-07-29T16:40:21.292Z,100501.94
2022-07-29T16:42:53.485Z,100496.66
2022-07-29T16:45:24.166Z,100497.56
2022-07-29T16:48:00.507Z,100493.06
2022-07-29T16:50:32.259Z,100488.47
2022-07-29T16:53:02.896Z,100491.97
2022-07-29T16:55:33.426Z,100486.69
2022-07-29T16:58:05.701Z,100484.03
2022-07-29T17:00:36.405Z,100479.63
2022-07-29T17:03:07.377Z,100481.38
2022-07-29T17:05:50.412Z,100437.53
2022-07-29T17:08:24.549Z,100487.47
2022-07-29T17:10:55.519Z,100478.78
2022-07-29T17:13:27.752Z,100478.88
2022-07-29T17:16:00.590Z,100477.00
2022-07-29T17:18:31.436Z,100482.28
2022-07-29T17:21:02.005Z,100481.38
2022-07-29T17:23:32.526Z,100485.88
2022-07-29T17:26:03.178Z,100479.00
2022-07-29T17:28:35.385Z,100488.06
2022-07-29T17:31:06.018Z,100482.78
2022-07-29T17:33:37.001Z,100480.25
2022-07-29T17:36:24.489Z,100477.47
2022-07-29T17:38:56.254Z,100407.97
2022-07-29T17:41:28.277Z,100471.38
2022-07-29T17:44:00.920Z,100468.72
2022-07-29T17:46:31.840Z,100465.06
2022-07-29T17:49:02.505Z,100462.25
2022-07-29T17:51:33.300Z,100449.88
2022-07-29T17:54:03.870Z,100454.25
2022-07-29T17:56:34.731Z,100454.25
2022-07-29T17:59:09.299Z,100443.66
2022-07-29T18:01:42.155Z,100448.94
2022-07-29T18:04:12.819Z,100441.00
2022-07-29T18:06:43.364Z,100434.75
2022-07-29T18:09:14.113Z,100438.19
2022-07-29T18:11:45.770Z,100420.59
2022-07-29T18:14:18.151Z,100421.44
2022-07-29T18:16:48.895Z,100424.16
2022-07-29T18:19:19.536Z,100420.59
2022-07-29T18:21:54.455Z,100428.59
2022-07-29T18:24:28.317Z,100425.88
2022-07-29T18:26:59.141Z,100423.22
2022-07-29T18:29:31.686Z,100424.00
2022-07-29T18:32:02.476Z,100428.53
2022-07-29T18:34:33.254Z,100424.16
2022-07-29T18:37:03.970Z,100427.75
2022-07-29T18:39:34.562Z,100421.66
2022-07-29T18:42:05.230Z,100427.13
2022-07-29T18:44:43.607Z,100424.59
2022-07-29T18:47:14.611Z,100420.19
2022-07-29T18:49:45.573Z,100420.19
2022-07-29T18:52:16.197Z,100424.59
2022-07-29T18:54:46.803Z,100417.59
2022-07-29T18:57:54.745Z,100425.50
2022-07-29T19:00:12.902Z,100420.09
2022-07-29T19:02:43.699Z,100416.53
2022-07-29T19:05:14.563Z,100415.56
2022-07-29T19:07:45.184Z,100403.28
2022-07-29T19:10:15.911Z,100410.28
2022-07-29T19:12:46.535Z,100406.72
2022-07-29T19:15:20.517Z,100417.44
2022-07-29T19:17:51.514Z,100403.72
2022-07-29T19:20:22.157Z,100410.44
2022-07-29T19:22:52.682Z,100417.78
2022-07-29T19:25:23.912Z,100405.44
2022-07-29T19:27:54.435Z,100403.56
2022-07-29T19:30:26.848Z,100381.97
2022-07-29T19:32:57.474Z,100404.28
2022-07-29T19:35:28.981Z,100405.44
2022-07-29T19:38:00.323Z,100403.72
2022-07-29T19:40:32.448Z,100424.75
2022-07-29T19:43:03.032Z,100422.91
2022-07-29T19:45:55.556Z,100427.25
2022-07-29T19:48:26.218Z,100428.94
2022-07-29T19:50:56.809Z,100428.81
2022-07-29T19:53:27.499Z,100433.34
2022-07-29T19:55:58.101Z,100430.63
2022-07-29T19:58:28.694Z,100424.31
2022-07-29T20:01:01.152Z,100431.19
2022-07-29T20:03:31.726Z,100426.00
2022-07-29T20:06:02.341Z,100395.31
2022-07-29T20:08:32.845Z,100425.09
2022-07-29T20:11:03.319Z,100419.00
2022-07-29T20:13:34.476Z,100412.16
2022-07-29T20:16:09.065Z,100420.66
2022-07-29T20:18:39.727Z,100424.00
2022-07-29T20:21:10.307Z,100421.34
2022-07-29T20:23:40.895Z,100404.53
2022-07-29T20:26:11.450Z,100398.22
2022-07-29T20:28:43.530Z,100403.19
2022-07-29T20:31:17.891Z,100398.44
2022-07-29T20:33:48.532Z,100404.22
2022-07-29T20:36:19.273Z,100394.22
2022-07-29T20:38:49.798Z,100397.34
2022-07-29T20:41:20.379Z,100395.16
2022-07-29T20:43:51.159Z,100386.09
2022-07-29T20:46:23.437Z,100386.53
2022-07-29T20:48:54.418Z,100383.47
2022-07-29T20:51:25.088Z,100378.41
2022-07-29T20:53:55.613Z,100373.13
2022-07-29T20:56:26.155Z,100359.81
2022-07-29T20:58:56.729Z,100356.03
2022-07-29T21:01:29.044Z,100349.56
2022-07-29T21:03:59.660Z,100350.78
2022-07-29T21:06:30.356Z,100345.53
2022-07-29T21:09:01.911Z,100355.25
2022-07-29T21:11:44.509Z,100361.59
2022-07-29T21:14:28.305Z,100330.06
2022-07-29T21:17:00.977Z,100358.03
2022-07-29T21:19:31.701Z,100351.53
2022-07-29T21:22:02.230Z,100342.81
2022-07-29T21:24:32.902Z,100354.50
2022-07-29T21:27:21.182Z,100346.69
2022-07-29T21:29:52.278Z,100354.88
2022-07-29T21:32:27.449Z,100347.66
2022-07-29T21:35:00.810Z,100344.22
2022-07-29T21:37:31.426Z,100337.75
2022-07-29T21:40:01.984Z,100332.97
2022-07-29T21:42:32.569Z,100332.19
2022-07-29T21:45:03.517Z,100341.22
2022-07-29T21:47:35.806Z,100348.69
2022-07-29T21:50:06.550Z,100339.50
2022-07-29T21:52:37.321Z,100342.78
2022-07-29T21:55:09.424Z,100337.22
2022-07-29T21:57:41.990Z,100323.22
2022-07-29T22:00:16.430Z,100322.75
2022-07-29T22:02:48.869Z,100297.56
2022-07-29T22:05:19.424Z,100311.13
2022-07-29T22:07:55.475Z,100307.06
2022-07-29T22:10:28.081Z,100319.34
2022-07-29T22:12:59.796Z,100312.63
2022-07-29T22:15:30.744Z,100303.44
2022-07-29T22:18:03.344Z,100307.59
2022-07-29T22:20:33.910Z,100309.84
2022-07-29T22:23:05.394Z,100307.22
2022-07-29T22:25:36.367Z,100303.81
2022-07-29T22:28:07.548Z,100287.25
2022-07-29T22:30:38.119Z,100286.16
2022-07-29T22:33:10.304Z,100292.31
2022-07-29T22:35:49.185Z,100281.56
2022-07-29T22:38:20.271Z,100286.56
2022-07-29T22:40:52.039Z,100288.66
2022-07-29T22:43:23.377Z,100290.97
2022-07-29T22:45:54.338Z,100287.56
2022-07-29T22:48:26.752Z,100260.91
2022-07-29T22:50:57.339Z,100295.09
2022-07-29T22:53:27.889Z,100288.22
2022-07-29T22:55:58.443Z,100291.53
2022-07-29T22:58:29.023Z,100296.53
2022-07-29T23:00:59.640Z,100286.25
2022-07-29T23:03:32.065Z,100283.63
2022-07-29T23:06:02.684Z,100275.13
2022-07-29T23:08:33.346Z,100272.28
2022-07-29T23:11:04.053Z,100271.59
2022-07-29T23:13:34.628Z,100268.47
2022-07-29T23:16:05.104Z,100281.63
2022-07-29T23:18:37.338Z,100281.16
2022-07-29T23:21:08.036Z,100279.16
2022-07-29T23:23:38.800Z,100268.34
2022-07-29T23:26:09.379Z,100269.44
2022-07-29T23:28:40.108Z,100262.28
2022-07-29T23:31:10.699Z,100270.03
2022-07-29T23:33:42.926Z,100273.47
2022-07-29T23:36:13.644Z,100265.22
2022-07-29T23:38:45.002Z,100260.44
2022-07-29T23:41:15.659Z,100245.38
2022-07-29T23:43:46.179Z,100245.34
2022-07-29T23:46:16.859Z,100233.41
2022-07-29T23:48:56.393Z,100223.44
2022-07-29T23:51:26.991Z,100220.75
2022-07-29T23:53:57.577Z,100222.44
2022-07-29T23:56:28.187Z,100209.44
2022-07-29T23:58:58.726Z,100210.41
